Time;durP1;ratioP1;P1;durP2;ratioP2;P2;SDS_P1;SDS_P2;PMS_P1;PMS_P2;Temp;Humidity;BMP_temperature;BMP_pressure;BME280_temperature;BME280_humidity;BME280_pressure;Samples;Min_cycle;Max_cycle;Signal;HPM_P1;HPM_P2
2022/10/04 00:01:29;;;;;;;3.55;1.77;;;;;;;13.11;100.00;96302.84;6176447;23;20476;-69
2022/10/04 00:04:07;;;;;;;1.98;1.80;;;;;;;13.06;100.00;96305.06;6176539;23;20068;-69
2022/10/04 00:06:34;;;;;;;2.00;1.90;;;;;;;13.02;100.00;96304.50;6176208;23;20126;-69
2022/10/04 00:09:14;;;;;;;3.35;1.90;;;;;;;12.97;100.00;96304.13;6176707;23;20101;-69
2022/10/04 00:11:44;;;;;;;2.88;1.92;;;;;;;12.95;100.00;96298.13;6175726;23;20532;-68
2022/10/04 00:14:32;;;;;;;2.03;1.83;;;;;;;12.90;100.00;96301.19;6176402;23;20013;-60
2022/10/04 00:16:59;;;;;;;4.60;1.73;;;;;;;12.81;100.00;96312.59;6176893;23;20008;-61
2022/10/04 00:19:38;;;;;;;2.53;1.85;;;;;;;12.71;100.00;96302.03;6176050;23;20005;-61
2022/10/04 00:22:06;;;;;;;2.92;1.90;;;;;;;12.64;100.00;96307.06;6176421;23;20001;-61
2022/10/04 00:24:34;;;;;;;2.20;1.70;;;;;;;12.55;100.00;96308.72;6176762;23;20009;-60
2022/10/04 00:27:28;;;;;;;6.85;2.30;;;;;;;12.51;100.00;96302.06;6176504;23;20031;-61
2022/10/04 00:30:03;;;;;;;2.53;2.33;;;;;;;12.34;100.00;96310.66;6175651;23;20009;-61
2022/10/04 00:32:38;;;;;;;2.15;1.85;;;;;;;12.28;100.00;96299.69;6176462;23;20039;-67
2022/10/04 00:35:26;;;;;;;2.03;1.92;;;;;;;12.17;100.00;96300.66;6176971;23;20011;-71
2022/10/04 00:38:12;;;;;;;2.47;2.28;;;;;;;12.11;100.00;96303.00;6176423;23;20008;-63
2022/10/04 00:40:49;;;;;;;2.20;2.05;;;;;;;12.01;100.00;96303.81;6176053;23;20405;-63
2022/10/04 00:43:31;;;;;;;3.15;2.70;;;;;;;11.93;100.00;96306.25;6175978;23;20061;-63
2022/10/04 00:46:22;;;;;;;7.47;2.20;;;;;;;11.85;100.00;96309.56;6176649;23;20344;-63
2022/10/04 00:48:52;;;;;;;5.45;2.20;;;;;;;11.81;100.00;96304.69;6176439;22;20016;-63
2022/10/04 00:51:28;;;;;;;5.88;1.88;;;;;;;11.68;100.00;96297.03;6176344;23;20024;-66
2022/10/04 00:54:21;;;;;;;1.70;1.60;;;;;;;11.60;100.00;96308.22;6176351;23;20029;-63
2022/10/04 00:56:56;;;;;;;2.65;2.10;;;;;;;11.58;100.00;96302.25;6175750;23;20009;-61
2022/10/04 00:59:45;;;;;;;2.15;1.95;;;;;;;11.49;100.00;96306.53;6176296;23;20030;-61
2022/10/04 01:02:16;;;;;;;5.82;2.78;;;;;;;11.44;100.00;96304.31;6176233;23;20038;-61
2022/10/04 01:04:47;;;;;;;4.78;2.40;;;;;;;11.44;100.00;96303.47;6175347;23;20451;-60
2022/10/04 01:07:17;;;;;;;2.67;2.50;;;;;;;11.38;100.00;96312.72;6176308;23;20008;-61
2022/10/04 01:09:51;;;;;;;9.63;3.30;;;;;;;11.36;100.00;96305.94;6149244;22;20011;-61
2022/10/04 01:12:43;;;;;;;8.48;2.50;;;;;;;11.32;100.00;96305.34;6176376;23;20088;-71
2022/10/04 01:15:20;;;;;;;6.47;2.45;;;;;;;11.23;100.00;96306.97;6177170;23;19998;-69
2022/10/04 01:18:21;;;;;;;2.42;2.22;;;;;;;11.11;100.00;96300.94;6176273;23;20094;-69
2022/10/04 01:20:49;;;;;;;2.45;2.25;;;;;;;11.09;100.00;96300.25;6177550;23;20008;-69
2022/10/04 01:23:46;;;;;;;4.28;2.20;;;;;;;11.06;100.00;96299.69;6176205;23;20012;-69
2022/10/04 01:26:30;;;;;;;4.60;1.85;;;;;;;11.02;100.00;96299.09;6175773;23;20001;-69
2022/10/04 01:28:59;;;;;;;5.27;2.23;;;;;;;10.98;100.00;96297.69;6176120;23;20001;-69
2022/10/04 01:31:26;;;;;;;3.72;2.10;;;;;;;10.88;100.00;96289.72;6176119;23;20044;-71
2022/10/04 01:33:53;;;;;;;6.60;2.20;;;;;;;10.81;100.00;96294.66;6175986;23;20455;-71
2022/10/04 01:36:19;;;;;;;3.92;1.95;;;;;;;10.82;100.00;96296.34;6175163;23;20005;-71
2022/10/04 01:38:45;;;;;;;6.95;1.90;;;;;;;10.84;100.00;96288.31;6176732;23;20072;-71
2022/10/04 01:41:13;;;;;;;3.25;1.90;;;;;;;10.79;100.00;96285.22;6176090;23;20325;-70
2022/10/04 01:43:42;;;;;;;6.82;1.67;;;;;;;10.77;100.00;96284.50;6176824;23;20005;-71
2022/10/04 01:46:22;;;;;;;2.67;1.95;;;;;;;10.67;100.00;96287.06;6176963;23;19997;-71
2022/10/04 01:48:48;;;;;;;2.88;1.80;;;;;;;10.57;100.00;96293.13;6175404;23;20001;-71
2022/10/04 01:51:20;;;;;;;2.33;2.10;;;;;;;10.57;100.00;96290.50;6176142;23;20001;-69
2022/10/04 01:54:01;;;;;;;2.33;2.08;;;;;;;10.57;100.00;96274.69;6175612;23;20008;-70
2022/10/04 01:56:36;;;;;;;2.20;1.60;;;;;;;10.57;100.00;96279.97;6175864;23;20498;-71
2022/10/04 01:59:05;;;;;;;2.60;1.98;;;;;;;10.51;100.00;96274.34;6175614;23;20004;-71
2022/10/04 02:01:47;;;;;;;5.53;2.28;;;;;;;10.42;100.00;96281.22;6175054;23;19993;-70
2022/10/04 02:04:26;;;;;;;5.32;2.28;;;;;;;10.36;100.00;96274.63;6175915;23;20004;-71
2022/10/04 02:06:55;;;;;;;6.22;2.88;;;;;;;10.25;100.00;96275.50;6175611;23;20016;-70
2022/10/04 02:09:31;;;;;;;2.50;2.28;;;;;;;10.29;100.00;96276.94;6175569;23;20224;-68
2022/10/04 02:11:58;;;;;;;5.70;2.10;;;;;;;10.27;100.00;96272.75;6175050;23;20106;-66
2022/10/04 02:14:28;;;;;;;3.92;2.20;;;;;;;10.25;100.00;96270.25;6176312;23;20001;-58
2022/10/04 02:16:54;;;;;;;1.80;1.70;;;;;;;10.27;100.00;96270.94;6175706;23;20001;-58
2022/10/04 02:19:31;;;;;;;3.58;1.95;;;;;;;10.20;100.00;96275.06;6175608;22;20094;-57
2022/10/04 02:21:57;;;;;;;2.20;1.80;;;;;;;10.09;100.00;96265.41;6175812;22;20024;-58
2022/10/04 02:24:23;;;;;;;4.15;2.00;;;;;;;10.02;100.00;96269.50;6175891;23;20001;-58
2022/10/04 02:26:52;;;;;;;4.70;1.90;;;;;;;10.01;100.00;96268.66;6174582;23;20066;-58
2022/10/04 02:29:19;;;;;;;11.75;1.92;;;;;;;10.02;100.00;96259.78;6175585;23;20005;-60
2022/10/04 02:34:30;;;;;;;5.00;1.98;;;;;;;9.99;100.00;96259.22;6175694;23;20008;-63
2022/10/04 02:36:56;;;;;;;2.05;1.85;;;;;;;9.96;100.00;96262.94;6175811;23;20009;-63
2022/10/04 02:39:29;;;;;;;4.13;1.83;;;;;;;9.97;100.00;96255.91;6175111;23;20005;-64
2022/10/04 02:42:20;;;;;;;2.38;1.75;;;;;;;9.89;100.00;96252.06;6174940;23;20435;-64
2022/10/04 02:45:01;;;;;;;1.98;1.88;;;;;;;9.79;100.00;96256.41;6176001;23;19997;-64
2022/10/04 02:47:35;;;;;;;4.60;1.92;;;;;;;9.79;100.00;96255.56;6175858;23;20084;-60
2022/10/04 02:50:08;;;;;;;1.75;1.65;;;;;;;9.75;100.00;96255.81;6176728;23;20016;-69
2022/10/04 02:52:44;;;;;;;5.43;2.65;;;;;;;9.78;100.00;96251.25;6176317;23;20028;-57
2022/10/04 02:55:19;;;;;;;;;;;;;;;9.75;100.00;96252.38;6177510;23;20061;-56
2022/10/04 02:57:45;;;;;;;2.20;2.10;;;;;;;9.66;100.00;96240.78;6177176;22;19954;-57
2022/10/04 03:00:18;;;;;;;3.25;2.10;;;;;;;9.58;100.00;96241.38;6176459;23;20442;-58
2022/10/04 03:03:18;;;;;;;4.95;1.70;;;;;;;9.57;100.00;96244.97;6176683;23;20455;-57
2022/10/04 03:06:18;;;;;;;4.50;1.90;;;;;;;9.57;100.00;96244.13;6177204;23;20488;-58
2022/10/04 03:08:51;;;;;;;2.83;1.83;;;;;;;9.52;100.00;96244.50;6176998;23;20134;-70
2022/10/04 03:11:21;;;;;;;4.00;1.80;;;;;;;9.51;100.00;96240.22;6176802;23;20005;-69
2022/10/04 03:13:51;;;;;;;2.13;2.00;;;;;;;9.49;100.00;96241.28;6177218;23;20005;-69
2022/10/04 03:16:17;;;;;;;3.22;1.92;;;;;;;9.45;100.00;96241.53;6175866;23;20098;-69
2022/10/04 03:18:43;;;;;;;2.08;1.90;;;;;;;9.42;100.00;96243.56;6176288;23;20013;-69
2022/10/04 03:21:13;;;;;;;6.45;2.00;;;;;;;9.41;100.00;96244.50;6176236;23;20487;-69
2022/10/04 03:23:39;;;;;;;3.42;1.90;;;;;;;9.38;100.00;96253.47;6176812;23;20089;-69
2022/10/04 03:26:27;;;;;;;2.00;1.90;;;;;;;9.32;100.00;96246.91;6176204;23;20008;-57
2022/10/04 03:28:54;;;;;;;7.18;2.10;;;;;;;9.27;100.00;96250.84;6176604;23;19997;-66
2022/10/04 03:31:20;;;;;;;1.88;1.77;;;;;;;9.24;100.00;96253.72;6176224;23;20026;-58
2022/10/04 03:33:46;;;;;;;1.90;1.80;;;;;;;9.24;100.00;96251.09;6176497;23;20084;-57
2022/10/04 03:36:15;;;;;;;4.22;2.05;;;;;;;9.25;100.00;96248.34;6176944;23;19997;-57
2022/10/04 03:38:42;;;;;;;2.00;1.90;;;;;;;9.24;100.00;96248.47;6176441;23;20476;-58
2022/10/04 03:41:10;;;;;;;2.03;1.80;;;;;;;9.22;100.00;96255.66;6175798;23;19997;-58
2022/10/04 03:43:42;;;;;;;1.92;1.83;;;;;;;9.15;100.00;96250.84;6176307;23;20339;-56
2022/10/04 03:46:09;;;;;;;2.28;1.70;;;;;;;9.14;100.00;96261.50;6176860;23;20029;-61
2022/10/04 03:48:38;;;;;;;2.10;2.00;;;;;;;9.15;100.00;96258.72;6175979;23;20078;-70
2022/10/04 03:51:06;;;;;;;2.20;2.10;;;;;;;9.17;100.00;96254.22;6176412;23;20040;-70
2022/10/04 03:53:41;;;;;;;2.45;2.20;;;;;;;9.15;100.00;96257.91;6175986;23;20027;-71
2022/10/04 03:56:14;;;;;;;2.70;2.38;;;;;;;9.10;100.00;96249.56;6176740;23;20469;-71
2022/10/04 03:58:40;;;;;;;4.72;2.20;;;;;;;9.05;100.00;96251.69;6175802;23;20446;-70
2022/10/04 04:01:16;;;;;;;2.55;2.35;;;;;;;8.99;100.00;96251.19;6176778;22;19997;-70
2022/10/04 04:03:52;;;;;;;3.03;2.10;;;;;;;8.98;100.00;96249.53;6176016;23;20001;-70
2022/10/04 04:06:18;;;;;;;2.13;2.00;;;;;;;8.95;100.00;96251.56;6176181;23;20069;-69
2022/10/04 04:08:47;;;;;;;2.20;2.10;;;;;;;8.96;100.00;96250.63;6175759;23;20058;-58
2022/10/04 04:11:25;;;;;;;7.20;1.92;;;;;;;8.96;100.00;96245.38;6176466;23;20080;-57
2022/10/04 04:13:58;;;;;;;3.30;2.35;;;;;;;8.95;100.00;96243.66;6177132;23;20011;-58
2022/10/04 04:16:27;;;;;;;2.28;2.17;;;;;;;8.93;100.00;96254.31;6176540;23;20027;-58
2022/10/04 04:18:57;;;;;;;4.40;2.25;;;;;;;8.93;100.00;96250.84;6176716;23;20037;-58
2022/10/04 04:21:25;;;;;;;2.60;1.77;;;;;;;8.94;100.00;96247.25;6177164;23;19993;-58
2022/10/04 04:24:04;;;;;;;2.35;2.10;;;;;;;8.93;100.00;96258.72;6176910;23;20001;-59
2022/10/04 04:26:38;;;;;;;2.70;1.90;;;;;;;8.85;100.00;96254.06;6150235;22;20009;-59
2022/10/04 04:29:06;;;;;;;3.05;1.83;;;;;;;8.79;100.00;96255.38;6176209;23;20443;-61
2022/10/04 04:31:40;;;;;;;11.15;2.00;;;;;;;8.78;100.00;96258.94;6176596;23;20028;-60
2022/10/04 04:34:15;;;;;;;5.72;2.50;;;;;;;8.74;100.00;96260.13;6177039;22;20008;-60
2022/10/04 04:36:41;;;;;;;4.27;2.20;;;;;;;8.72;100.00;96260.25;6176487;23;20008;-61
2022/10/04 04:39:36;;;;;;;3.53;2.65;;;;;;;8.75;100.00;96261.81;6176013;23;20005;-60
2022/10/04 04:42:09;;;;;;;2.45;2.25;;;;;;;8.76;100.00;96257.38;6176084;23;20359;-60
2022/10/04 04:44:37;;;;;;;2.50;2.35;;;;;;;8.68;100.00;96255.34;6176908;23;20001;-65
2022/10/04 04:47:25;;;;;;;3.17;2.75;;;;;;;8.61;100.00;96247.09;6176820;23;20007;-68
2022/10/04 04:49:52;;;;;;;5.85;2.35;;;;;;;8.57;100.00;96253.53;6176640;23;19997;-68
2022/10/04 04:52:21;;;;;;;3.40;2.10;;;;;;;8.59;100.00;96257.72;6176704;23;20078;-68
2022/10/04 04:54:47;;;;;;;2.60;2.30;;;;;;;8.60;100.00;96254.13;6177214;23;20435;-68
2022/10/04 04:57:16;;;;;;;7.65;4.80;;;;;;;8.58;100.00;96263.91;6175674;22;20005;-68
2022/10/04 04:59:48;;;;;;;2.55;2.35;;;;;;;8.54;100.00;96259.84;6176567;22;20009;-68
2022/10/04 05:02:50;;;;;;;2.60;2.42;;;;;;;8.54;100.00;96262.47;6149959;23;20454;-69
2022/10/04 05:05:17;;;;;;;2.38;2.28;;;;;;;8.56;100.00;96259.72;6177129;23;20005;-71
2022/10/04 05:07:42;;;;;;;8.80;2.63;;;;;;;8.53;100.00;96267.84;6176974;23;20024;-60
2022/10/04 05:10:33;;;;;;;4.15;3.00;;;;;;;8.52;100.00;96268.78;6175585;23;19997;-60
2022/10/04 05:13:00;;;;;;;2.55;2.45;;;;;;;8.52;100.00;96269.63;6176897;22;20020;-60
2022/10/04 05:15:33;;;;;;;5.40;2.78;;;;;;;8.48;100.00;96276.00;6177096;23;20020;-60
2022/10/04 05:18:00;;;;;;;2.60;2.40;;;;;;;8.42;100.00;96272.09;6176018;23;20025;-61
2022/10/04 05:20:26;;;;;;;5.70;2.60;;;;;;;8.43;100.00;96268.50;6176612;23;20025;-60
2022/10/04 05:22:51;;;;;;;4.05;2.83;;;;;;;8.44;100.00;96278.03;6175940;23;20001;-65
2022/10/04 05:25:32;;;;;;;5.43;2.47;;;;;;;8.40;100.00;96268.72;6175692;23;20005;-64
2022/10/04 05:27:58;;;;;;;3.25;2.70;;;;;;;8.34;100.00;96276.22;6176513;23;20358;-64
2022/10/04 05:30:35;;;;;;;4.90;3.03;;;;;;;8.29;100.00;96266.91;6175625;23;20088;-65
2022/10/04 05:33:04;;;;;;;3.70;2.55;;;;;;;8.36;100.00;96266.44;6176628;23;20054;-64
2022/10/04 05:35:49;;;;;;;4.93;2.97;;;;;;;8.40;100.00;96273.97;6177056;23;20005;-65
2022/10/04 05:38:26;;;;;;;10.57;3.50;;;;;;;8.39;100.00;96277.53;6175477;23;20001;-65
2022/10/04 05:41:00;;;;;;;2.97;2.55;;;;;;;8.34;100.00;96281.47;6175470;22;20024;-63
2022/10/04 05:43:34;;;;;;;5.38;2.78;;;;;;;8.32;100.00;96278.94;6176443;23;20336;-64
2022/10/04 05:46:23;;;;;;;5.85;4.60;;;;;;;8.27;100.00;96276.66;6176251;23;20004;-64
2022/10/04 05:48:54;;;;;;;4.10;3.05;;;;;;;8.25;100.00;96281.19;6175579;23;20067;-64
2022/10/04 05:51:27;;;;;;;3.25;3.00;;;;;;;8.26;100.00;96280.22;6149839;23;20043;-63
2022/10/04 05:53:56;;;;;;;3.53;3.33;;;;;;;8.28;100.00;96273.06;6173557;23;20506;-62
2022/10/04 05:56:40;;;;;;;5.38;2.72;;;;;;;8.28;100.00;96275.69;6174450;23;20031;-62
2022/10/04 05:59:11;;;;;;;3.35;3.05;;;;;;;8.27;100.00;96273.22;6174767;23;20047;-62
2022/10/04 06:02:38;;;;;;;6.28;3.53;;;;;;;8.29;100.00;96276.56;6172033;23;20702;-63
2022/10/04 06:05:09;;;;;;;3.93;3.20;;;;;;;8.30;100.00;96275.59;6153264;23;20517;-58
2022/10/04 06:07:50;;;;;;;4.43;3.45;;;;;;;8.28;100.00;96280.13;6173372;23;19997;-58
2022/10/04 06:10:43;;;;;;;3.20;2.95;;;;;;;8.28;100.00;96275.69;6174102;23;20080;-57
2022/10/04 06:13:30;;;;;;;7.65;3.40;;;;;;;8.30;100.00;96279.06;6174884;23;20004;-57
2022/10/04 06:16:02;;;;;;;5.72;3.72;;;;;;;8.29;100.00;96273.94;6176592;23;20339;-57
2022/10/04 06:18:39;;;;;;;4.15;3.55;;;;;;;8.26;100.00;96277.59;6175000;23;20032;-58
2022/10/04 06:21:41;;;;;;;6.25;3.45;;;;;;;8.25;100.00;96282.97;6175862;23;20010;-64
2022/10/04 06:24:16;;;;;;;4.25;3.08;;;;;;;8.28;100.00;96278.31;6149760;22;20001;-68
2022/10/04 06:27:10;;;;;;;3.80;3.25;;;;;;;8.36;100.00;96279.56;6177579;23;20005;-68
2022/10/04 06:30:03;;;;;;;4.00;3.00;;;;;;;8.35;100.00;96278.72;6177350;23;20509;-68
2022/10/04 06:33:30;;;;;;;6.38;3.60;;;;;;;8.31;100.00;96274.66;6175653;23;20047;-66
2022/10/04 06:36:10;;;;;;;8.02;3.67;;;;;;;8.36;100.00;96280.38;6176959;23;20100;-66
2022/10/04 06:38:39;;;;;;;7.05;3.67;;;;;;;8.38;100.00;96277.66;6177698;23;20012;-68
2022/10/04 06:41:27;;;;;;;5.78;3.80;;;;;;;8.43;100.00;96275.53;6175893;23;20483;-61
2022/10/04 06:43:56;;;;;;;9.35;3.60;;;;;;;8.49;100.00;96269.00;6173525;23;20008;-72
2022/10/04 06:46:36;;;;;;;5.00;3.92;;;;;;;8.52;100.00;96268.78;6175213;23;20031;-73
2022/10/04 06:49:08;;;;;;;4.10;3.70;;;;;;;8.54;100.00;96270.34;6176058;23;20397;-74
2022/10/04 06:52:04;;;;;;;8.95;3.88;;;;;;;8.56;100.00;96275.47;6177052;23;20001;-76
2022/10/04 06:54:58;;;;;;;4.35;3.90;;;;;;;8.55;100.00;96279.91;6177226;23;20429;-75
2022/10/04 06:57:44;;;;;;;4.15;3.42;;;;;;;8.56;100.00;96286.81;6177870;23;20054;-74
2022/10/04 07:00:20;;;;;;;;;;;;;;;8.59;100.00;96291.84;6177928;23;20435;-61
2022/10/04 07:02:57;;;;;;;3.85;3.55;;;;;;;8.64;100.00;96288.88;6176794;22;19908;-66
2022/10/04 07:05:47;;;;;;;9.55;4.03;;;;;;;8.68;100.00;96299.97;6176859;23;20179;-66
2022/10/04 07:08:31;;;;;;;8.05;3.67;;;;;;;8.73;100.00;96297.81;6175546;23;19997;-66
2022/10/04 07:11:12;;;;;;;8.18;4.28;;;;;;;8.79;100.00;96310.50;6175820;23;20002;-66
2022/10/04 07:13:56;;;;;;;3.80;3.60;;;;;;;8.83;100.00;96308.47;6176861;23;20009;-66
2022/10/04 07:16:25;;;;;;;3.88;3.58;;;;;;;8.87;100.00;96305.50;6175239;23;20068;-66
2022/10/04 07:19:16;;;;;;;4.93;4.07;;;;;;;8.90;100.00;96307.06;6176597;23;20017;-75
2022/10/04 07:21:49;;;;;;;5.03;4.05;;;;;;;8.94;100.00;96310.28;6176567;22;20021;-66
2022/10/04 07:24:24;;;;;;;5.25;3.80;;;;;;;8.95;100.00;96311.94;6174800;23;20021;-65
2022/10/04 07:26:51;;;;;;;8.07;4.45;;;;;;;8.94;100.00;96320.78;6149871;23;19997;-65
2022/10/04 07:29:27;;;;;;;7.15;4.15;;;;;;;8.96;100.00;96316.28;6177042;23;20117;-66
2022/10/04 07:32:04;;;;;;;;;;;;;;;9.06;100.00;96319.00;6175555;23;20001;-67
2022/10/04 07:34:37;;;;;;;5.38;4.03;;;;;;;9.16;100.00;96320.81;6177297;23;19923;-67
2022/10/04 07:37:14;;;;;;;4.60;4.30;;;;;;;9.33;100.00;96323.94;6176135;23;20005;-59
2022/10/04 07:39:46;;;;;;;5.80;5.30;;;;;;;9.51;100.00;96324.34;6176354;23;20005;-63
2022/10/04 07:42:26;;;;;;;6.85;4.40;;;;;;;9.66;100.00;96324.91;6176703;23;20078;-59
2022/10/04 07:45:20;;;;;;;6.15;5.53;;;;;;;9.83;100.00;96333.25;6177383;23;20072;-59
2022/10/04 07:47:45;;;;;;;5.53;5.13;;;;;;;10.07;100.00;96322.56;6174976;23;20070;-59
2022/10/04 07:50:51;;;;;;;9.93;8.07;;;;;;;10.29;100.00;96331.38;6177442;23;20005;-59
2022/10/04 07:53:19;;;;;;;9.85;8.95;;;;;;;10.38;100.00;96327.16;6176080;23;20370;-59
2022/10/04 07:55:56;;;;;;;13.00;11.73;;;;;;;10.46;100.00;96325.59;6175927;23;20443;-59
2022/10/04 07:58:43;;;;;;;10.82;9.68;;;;;;;10.54;100.00;96329.38;6176025;23;20450;-56
2022/10/04 08:01:38;;;;;;;5.40;4.88;;;;;;;10.60;100.00;96332.34;6174651;23;20001;-63
2022/10/04 08:04:09;;;;;;;4.23;3.70;;;;;;;10.66;100.00;96340.72;6176144;23;20027;-63
2022/10/04 08:06:58;;;;;;;3.25;3.05;;;;;;;10.70;100.00;96334.22;6176120;23;20001;-64
2022/10/04 08:09:42;;;;;;;2.97;2.78;;;;;;;10.80;100.00;96335.16;6177748;23;20012;-62
2022/10/04 08:12:51;;;;;;;3.50;2.60;;;;;;;10.95;100.00;96330.38;6176253;23;20001;-64
2022/10/04 08:15:39;;;;;;;3.55;2.50;;;;;;;11.10;100.00;96338.81;6178339;23;20101;-62
2022/10/04 08:18:32;;;;;;;2.60;2.38;;;;;;;11.15;100.00;96338.41;6174919;23;20368;-60
2022/10/04 08:21:02;;;;;;;5.68;2.50;;;;;;;11.26;100.00;96342.78;6176516;23;20008;-67
2022/10/04 08:23:43;;;;;;;6.03;2.33;;;;;;;11.35;100.00;96336.72;6177285;23;20001;-68
2022/10/04 08:26:36;;;;;;;2.13;1.90;;;;;;;11.41;100.00;96332.72;6177362;22;20034;-67
2022/10/04 08:32:30;;;;;;;2.33;2.15;;;;;;;11.57;100.00;96322.53;6176786;23;20399;-69
2022/10/04 08:35:19;;;;;;;3.40;2.42;;;;;;;11.63;100.00;96336.16;6176292;23;20001;-57
2022/10/04 08:38:00;;;;;;;3.80;2.80;;;;;;;11.74;100.00;96328.97;6177158;23;20072;-72
2022/10/04 08:40:38;;;;;;;2.60;2.50;;;;;;;11.85;100.00;96321.94;6177209;22;20333;-72
2022/10/04 08:43:27;;;;;;;3.22;2.40;;;;;;;11.91;100.00;96326.69;6174761;23;20009;-68
2022/10/04 08:46:33;;;;;;;2.65;2.55;;;;;;;11.99;100.00;96324.19;6175541;23;19997;-68
2022/10/04 08:49:30;;;;;;;2.85;2.70;;;;;;;12.02;100.00;96323.94;6176315;23;20088;-68
2022/10/04 08:52:04;;;;;;;2.70;2.50;;;;;;;12.04;100.00;96327.28;6176093;23;20013;-68
2022/10/04 08:55:04;;;;;;;2.97;2.67;;;;;;;12.20;100.00;96328.56;6175579;23;20068;-60
2022/10/04 08:57:51;;;;;;;3.15;2.63;;;;;;;12.38;100.00;96325.25;6175688;23;20056;-57
2022/10/04 09:00:37;;;;;;;3.17;2.88;;;;;;;12.49;100.00;96330.44;6175477;23;20032;-55
2022/10/04 09:03:05;;;;;;;7.75;3.00;;;;;;;12.57;100.00;96333.19;6148474;23;20434;-58
2022/10/04 09:05:37;;;;;;;4.65;3.22;;;;;;;12.65;100.00;96324.59;6176701;23;20058;-56
2022/10/04 09:08:41;;;;;;;3.03;2.85;;;;;;;12.70;100.00;96327.63;6176197;22;20354;-58
2022/10/04 09:11:31;;;;;;;4.20;2.60;;;;;;;12.79;100.00;96327.75;6177139;23;20439;-57
2022/10/04 09:14:28;;;;;;;3.17;2.72;;;;;;;12.85;100.00;96335.97;6176660;23;20005;-57
2022/10/04 09:17:13;;;;;;;5.13;2.75;;;;;;;12.94;100.00;96328.19;6177084;23;20001;-63
2022/10/04 09:19:57;;;;;;;2.60;2.50;;;;;;;13.09;100.00;96323.28;6175674;23;20527;-64
2022/10/04 09:22:55;;;;;;;2.42;2.22;;;;;;;13.25;97.64;96335.91;6175248;23;20072;-65
2022/10/04 09:25:45;;;;;;;3.30;2.47;;;;;;;13.36;99.10;96330.44;6175525;22;20084;-65
2022/10/04 09:28:29;;;;;;;5.05;2.88;;;;;;;13.39;95.24;96327.53;6175568;23;20333;-65
2022/10/04 09:30:55;;;;;;;2.75;2.55;;;;;;;13.43;95.87;96326.28;6174756;23;20317;-65
2022/10/04 09:33:38;;;;;;;3.10;2.90;;;;;;;13.55;96.29;96328.75;6175615;23;20062;-60
2022/10/04 09:36:18;;;;;;;5.25;2.25;;;;;;;13.70;95.53;96327.31;6175567;23;20001;-58
2022/10/04 09:39:00;;;;;;;3.67;2.30;;;;;;;13.79;95.46;96327.38;6169953;23;20007;-54
2022/10/04 09:41:58;;;;;;;2.60;2.40;;;;;;;13.83;93.24;96326.16;6169838;23;19998;-58
2022/10/04 09:44:48;;;;;;;4.43;2.55;;;;;;;13.91;94.17;96323.59;6170390;23;20038;-58
2022/10/04 09:47:29;;;;;;;4.95;2.70;;;;;;;13.99;94.10;96318.38;6168461;22;20084;-58
2022/10/04 09:50:25;;;;;;;6.40;3.03;;;;;;;14.12;94.76;96319.84;6168779;23;20013;-57
2022/10/04 09:53:04;;;;;;;4.38;3.20;;;;;;;14.30;95.18;96322.50;6171228;23;20088;-68
2022/10/04 09:55:32;;;;;;;4.18;2.60;;;;;;;14.41;94.17;96324.97;6170348;23;20008;-68
2022/10/04 09:58:08;;;;;;;3.33;2.97;;;;;;;14.42;93.08;96323.97;6170905;23;20006;-68
2022/10/04 10:00:54;;;;;;;4.03;2.63;;;;;;;14.41;93.19;96318.81;6169838;23;20005;-68
2022/10/04 10:03:47;;;;;;;3.88;2.58;;;;;;;14.56;92.70;96317.31;6172750;23;20001;-66
2022/10/04 10:06:31;;;;;;;3.85;2.25;;;;;;;14.72;90.17;96321.13;6170291;23;20012;-66
2022/10/04 10:09:18;;;;;;;2.47;2.38;;;;;;;14.71;89.95;96316.81;6171110;23;20000;-68
2022/10/04 10:15:18;;;;;;;2.30;2.20;;;;;;;14.83;90.49;96320.06;6172278;23;20020;-67
2022/10/04 10:17:53;;;;;;;2.30;2.20;;;;;;;15.01;89.23;96315.53;6172175;23;20075;-69
2022/10/04 10:20:35;;;;;;;3.20;2.78;;;;;;;15.04;89.03;96317.91;6170267;22;20005;-69
2022/10/04 10:23:38;;;;;;;6.65;2.60;;;;;;;15.12;89.53;96329.56;6144410;22;20017;-69
2022/10/04 10:26:34;;;;;;;2.85;2.40;;;;;;;15.22;88.63;96322.31;6171261;23;20050;-69
2022/10/04 10:29:02;;;;;;;;;;;;;;;15.31;87.94;96323.22;6172011;23;20001;-69
2022/10/04 10:32:06;;;;;;;3.28;2.50;;;;;;;15.49;87.62;96327.63;6171205;23;20002;-59
2022/10/04 10:34:41;;;;;;;2.53;2.28;;;;;;;15.67;86.61;96327.53;6172652;23;20039;-70
2022/10/04 10:37:25;;;;;;;3.95;2.45;;;;;;;15.80;83.92;96321.78;6172673;23;20414;-70
2022/10/04 10:40:18;;;;;;;2.10;2.00;;;;;;;15.92;83.43;96325.88;6171884;23;20471;-70
2022/10/04 10:43:00;;;;;;;2.33;2.22;;;;;;;16.17;79.86;96320.66;6172133;23;20001;-71
2022/10/04 10:45:50;;;;;;;2.13;1.92;;;;;;;16.23;80.13;96319.19;6171372;23;20003;-70
2022/10/04 10:48:51;;;;;;;2.40;1.70;;;;;;;16.34;78.76;96329.47;6171503;23;20020;-70
2022/10/04 10:51:56;;;;;;;2.00;1.85;;;;;;;16.46;77.71;96328.19;6172417;23;20480;-68
2022/10/04 10:54:43;;;;;;;2.83;2.15;;;;;;;16.68;78.13;96336.53;6171531;23;20004;-71
2022/10/04 10:57:34;;;;;;;3.92;2.08;;;;;;;16.87;77.58;96335.38;6172224;22;20009;-71
2022/10/04 11:00:31;;;;;;;1.98;1.80;;;;;;;17.02;76.31;96342.72;6171454;23;20449;-71
2022/10/04 11:03:16;;;;;;;2.58;2.03;;;;;;;17.31;75.62;96342.22;6171270;23;20266;-71
2022/10/04 11:06:13;;;;;;;2.10;2.00;;;;;;;17.49;75.88;96341.19;6171848;23;20051;-71
2022/10/04 11:08:57;;;;;;;2.35;2.25;;;;;;;17.65;74.70;96342.97;6172471;23;20055;-67
2022/10/04 11:11:59;;;;;;;3.58;2.17;;;;;;;17.69;74.02;96344.28;6173389;23;20005;-68
2022/10/04 11:14:34;;;;;;;2.65;2.00;;;;;;;17.89;72.93;96346.56;6173755;23;20464;-61
2022/10/04 11:17:32;;;;;;;2.42;2.22;;;;;;;17.87;71.75;96351.22;6173938;23;20008;-62
2022/10/04 11:20:04;;;;;;;1.80;1.70;;;;;;;17.87;70.92;96352.03;6173114;23;20013;-61
2022/10/04 11:22:44;;;;;;;6.15;1.85;;;;;;;17.89;69.55;96349.22;6173566;23;20057;-61
2022/10/04 11:25:36;;;;;;;1.60;1.60;;;;;;;18.00;69.56;96351.50;6173780;23;19997;-62
2022/10/04 11:28:15;;;;;;;4.50;1.65;;;;;;;17.97;69.53;96345.69;6173864;23;20064;-65
2022/10/04 11:31:17;;;;;;;1.70;1.50;;;;;;;18.01;66.92;96333.69;6172170;23;20008;-62
2022/10/04 11:34:10;;;;;;;1.48;1.48;;;;;;;18.03;66.77;96329.06;6173569;23;20005;-70
2022/10/04 11:36:47;;;;;;;1.83;1.73;;;;;;;17.94;65.74;96336.22;6174046;23;20197;-71
2022/10/04 11:39:19;;;;;;;1.70;1.60;;;;;;;18.10;66.93;96340.66;6172243;23;20000;-70
2022/10/04 11:42:06;;;;;;;1.75;1.65;;;;;;;18.16;64.90;96332.00;6173556;23;20001;-70
2022/10/04 11:44:36;;;;;;;3.50;1.70;;;;;;;18.21;65.38;96330.63;6173513;23;20253;-70
2022/10/04 11:47:23;;;;;;;1.50;1.40;;;;;;;18.11;58.78;96328.19;6173976;23;20028;-67
2022/10/04 11:50:19;;;;;;;1.70;1.55;;;;;;;17.96;61.94;96325.41;6173634;23;20123;-70
2022/10/04 11:53:22;;;;;;;1.58;1.52;;;;;;;17.96;63.55;96328.88;6172404;23;20397;-60
2022/10/04 11:56:10;;;;;;;2.28;1.70;;;;;;;17.90;63.05;96319.75;6173690;23;20024;-59
2022/10/04 11:58:50;;;;;;;2.28;1.80;;;;;;;17.95;63.14;96316.56;6173876;23;20080;-60
2022/10/04 12:01:46;;;;;;;3.67;1.70;;;;;;;18.03;62.78;96313.91;6172476;23;20029;-60
2022/10/04 12:04:18;;;;;;;;;;;;;;;18.16;61.39;96313.34;6147196;23;20385;-61
2022/10/04 12:07:01;;;;;;;2.47;1.55;;;;;;;18.34;64.04;96317.56;6172800;23;19915;-67
2022/10/04 12:10:00;;;;;;;1.77;1.67;;;;;;;18.65;61.30;96308.72;6173528;23;20082;-62
2022/10/04 12:12:52;;;;;;;1.77;1.67;;;;;;;18.61;61.80;96296.75;6173264;23;20005;-62
2022/10/04 12:15:35;;;;;;;1.52;1.48;;;;;;;18.60;60.26;96298.56;6172717;23;20008;-62
2022/10/04 12:18:27;;;;;;;1.77;1.67;;;;;;;18.68;59.86;96286.19;6173100;23;20013;-62
2022/10/04 12:21:27;;;;;;;3.97;2.03;;;;;;;18.74;59.87;96288.16;6173270;23;19997;-62
2022/10/04 12:24:15;;;;;;;1.80;1.70;;;;;;;19.07;60.39;96282.56;6173007;23;20001;-62
2022/10/04 12:27:01;;;;;;;1.48;1.38;;;;;;;19.40;58.97;96284.91;6173502;23;20001;-64
2022/10/04 12:29:36;;;;;;;1.30;1.30;;;;;;;19.50;58.38;96283.78;6172594;23;20007;-64
2022/10/04 12:32:09;;;;;;;1.45;1.35;;;;;;;19.43;57.15;96271.19;6173392;23;20013;-65
2022/10/04 12:34:53;;;;;;;1.48;1.38;;;;;;;19.36;58.36;96270.28;6173332;23;20536;-65
2022/10/04 12:37:49;;;;;;;1.83;1.60;;;;;;;19.28;59.30;96265.00;6172979;23;20005;-64
2022/10/04 12:40:27;;;;;;;1.85;1.50;;;;;;;19.57;57.31;96263.38;6127629;23;20072;-64